Time;durP1;ratioP1;P1;durP2;ratioP2;P2;SDS_P1;SDS_P2;PMS_P1;PMS_P2;Temp;Humidity;BMP_temperature;BMP_pressure;BME280_temperature;BME280_humidity;BME280_pressure;Samples;Min_cycle;Max_cycle;Signal;HPM_P1;HPM_P2
2023/10/08 00:02:55;;;;;;;4.30;3.00;;;20.60;90.70;;;;;;4880525;29;20449;-88
2023/10/08 00:05:54;;;;;;;3.80;2.63;;;20.60;90.80;;;;;;4891503;29;20456;-86
2023/10/08 00:09:11;;;;;;;4.20;3.20;;;21.10;91.10;;;;;;4974984;23;20589;-86
2023/10/08 00:12:01;;;;;;;6.73;3.60;;;20.60;90.80;;;;;;4986553;28;20454;-88
2023/10/08 00:18:22;;;;;;;5.80;3.20;;;20.60;91.00;;;;;;4894284;29;20638;-86
2023/10/08 00:27:04;;;;;;;3.30;3.00;;;20.40;91.00;;;;;;4889743;29;20455;-88
2023/10/08 00:29:53;;;;;;;4.23;3.30;;;20.40;91.20;;;;;;4990198;28;20463;-86
2023/10/08 00:32:57;;;;;;;5.20;3.30;;;20.40;91.20;;;;;;4989588;28;20439;-88
2023/10/08 00:35:56;;;;;;;4.27;2.77;;;20.60;91.40;;;;;;4995673;28;20450;-86
2023/10/08 00:41:21;;;;;;;4.13;3.00;;;20.30;91.40;;;;;;5114760;23;20513;-89
2023/10/08 00:44:15;;;;;;;4.20;3.33;;;20.80;91.70;;;;;;4987223;28;20429;-84
2023/10/08 00:47:06;;;;;;;4.90;3.00;;;20.30;91.80;;;;;;4965605;28;20523;-84
2023/10/08 00:50:19;;;;;;;4.53;2.90;;;20.20;91.50;;;;;;4929385;29;20456;-86
2023/10/08 00:53:28;;;;;;;7.60;3.50;;;20.20;91.50;;;;;;4943052;29;20500;-85
2023/10/08 00:56:49;;;;;;;6.00;3.40;;;20.20;91.60;;;;;;4959719;29;20842;-85
2023/10/08 01:00:37;;;;;;;4.70;2.97;;;20.20;91.60;;;;;;4946410;29;20457;-86
2023/10/08 01:03:15;;;;;;;4.60;2.90;;;20.10;91.60;;;;;;4961247;29;20457;-85
2023/10/08 01:06:25;;;;;;;4.43;3.13;;;20.10;91.70;;;;;;4959959;28;20464;-86
2023/10/08 01:16:08;;;;;;;4.67;3.20;;;20.10;91.80;;;;;;4912338;29;20440;-87
2023/10/08 01:19:02;;;;;;;5.13;3.03;;;20.10;91.70;;;;;;4965602;23;20526;-84
2023/10/08 01:21:53;;;;;;;5.60;3.23;;;20.00;91.80;;;;;;4969725;28;20535;-85
2023/10/08 01:24:56;;;;;;;6.33;4.07;;;20.00;91.80;;;;;;4952155;28;20452;-85
2023/10/08 01:28:26;;;;;;;5.40;4.40;;;20.00;91.80;;;;;;4968107;28;20464;-85
2023/10/08 01:31:23;;;;;;;6.07;2.90;;;20.00;91.80;;;;;;4959716;28;20452;-84
2023/10/08 01:34:17;;;;;;;4.73;2.77;;;19.90;91.80;;;;;;4964927;28;20468;-88
2023/10/08 01:37:43;;;;;;;5.30;4.67;;;19.90;91.80;;;;;;4987738;28;20518;-87
2023/10/08 01:40:50;;;;;;;3.73;2.90;;;19.90;91.90;;;;;;4967887;28;20500;-85
2023/10/08 01:43:52;;;;;;;3.57;2.80;;;19.80;91.90;;;;;;4968778;28;20454;-86
2023/10/08 01:47:03;;;;;;;5.03;2.50;;;19.70;91.80;;;;;;4968031;28;20479;-84
2023/10/08 01:50:04;;;;;;;6.93;3.13;;;19.70;91.90;;;;;;4973213;28;20467;-88
2023/10/08 01:52:48;;;;;;;5.03;2.87;;;19.70;91.90;;;;;;4988996;28;20460;-88
2023/10/08 01:59:06;;;;;;;5.60;2.87;;;19.60;91.90;;;;;;4982047;28;20472;-85
2023/10/08 02:02:02;;;;;;;5.53;3.20;;;19.60;92.00;;;;;;4940300;29;20474;-85
2023/10/08 02:05:06;;;;;;;3.67;2.50;;;19.60;91.90;;;;;;4928332;29;20478;-88
2023/10/08 02:11:05;;;;;;;6.87;3.50;;;19.50;91.90;;;;;;4928736;29;20450;-85
2023/10/08 02:14:09;;;;;;;4.43;2.77;;;19.30;91.90;;;;;;4924571;29;20452;-88
2023/10/08 02:17:24;;;;;;;5.90;3.30;;;19.30;92.00;;;;;;4920669;29;20461;-84
2023/10/08 02:20:18;;;;;;;4.03;3.03;;;19.50;92.10;;;;;;4936848;28;20469;-87
2023/10/08 02:23:06;;;;;;;5.43;3.03;;;19.40;92.20;;;;;;4934346;29;20490;-85
2023/10/08 02:26:23;;;;;;;4.97;3.07;;;19.40;92.20;;;;;;4938967;29;20498;-86
2023/10/08 02:31:50;;;;;;;4.63;2.63;;;19.30;92.20;;;;;;5011276;28;20506;-84
2023/10/08 02:34:42;;;;;;;3.40;2.53;;;19.40;92.30;;;;;;5025235;28;20443;-85
2023/10/08 02:37:54;;;;;;;8.77;3.20;;;19.40;92.40;;;;;;5006745;28;20549;-85
2023/10/08 02:40:51;;;;;;;4.03;2.83;;;19.30;92.20;;;;;;5002393;28;20439;-85
2023/10/08 02:43:48;;;;;;;4.27;2.97;;;19.40;92.40;;;;;;4988431;28;20503;-87
2023/10/08 02:49:44;;;;;;;6.07;3.10;;;19.30;92.20;;;;;;4986286;28;20456;-87
2023/10/08 02:52:52;;;;;;;6.90;3.40;;;19.30;92.40;;;;;;4978445;28;20432;-84
2023/10/08 02:55:42;;;;;;;3.50;2.77;;;19.30;92.20;;;;;;4982023;28;20472;-85
2023/10/08 02:58:47;;;;;;;3.47;3.00;;;19.30;92.20;;;;;;4996684;28;20525;-85
2023/10/08 03:01:39;;;;;;;4.97;3.30;;;19.30;92.20;;;;;;4981102;28;20451;-86
2023/10/08 03:04:28;;;;;;;4.17;3.13;;;19.30;92.30;;;;;;4981056;28;20974;-86
2023/10/08 03:07:32;;;;;;;5.23;2.90;;;19.30;92.00;;;;;;4968362;28;20459;-85
2023/10/08 03:10:22;;;;;;;4.33;2.90;;;19.40;92.10;;;;;;4972066;28;20456;-84
2023/10/08 03:13:38;;;;;;;4.73;2.80;;;19.40;91.90;;;;;;4969250;28;20471;-85
2023/10/08 03:16:36;;;;;;;3.93;3.50;;;19.40;92.00;;;;;;4972325;28;20572;-85
2023/10/08 03:19:44;;;;;;;3.40;2.40;;;19.40;91.90;;;;;;4974654;28;20502;-85
2023/10/08 03:22:33;;;;;;;6.03;3.40;;;19.40;91.90;;;;;;4968893;28;20939;-86
2023/10/08 03:25:23;;;;;;;3.33;2.57;;;19.30;91.90;;;;;;4968593;28;20445;-85
2023/10/08 03:28:34;;;;;;;6.93;3.17;;;19.30;91.80;;;;;;4941697;28;20578;-87
2023/10/08 03:34:43;;;;;;;4.40;3.10;;;19.20;92.10;;;;;;4968170;28;20878;-85
2023/10/08 03:40:42;;;;;;;4.77;2.90;;;19.30;91.90;;;;;;4975750;28;20490;-86
2023/10/08 03:44:50;;;;;;;4.93;3.03;;;19.30;92.00;;;;;;4970702;28;20471;-86
2023/10/08 03:47:02;;;;;;;4.07;3.10;;;19.20;91.90;;;;;;4965371;28;20464;-86
2023/10/08 03:53:02;;;;;;;4.23;3.00;;;19.10;92.00;;;;;;4977318;28;20471;-86
2023/10/08 03:56:05;;;;;;;5.80;3.20;;;19.10;92.10;;;;;;4967999;28;20613;-86
2023/10/08 03:59:12;;;;;;;4.57;2.80;;;19.00;92.00;;;;;;4957066;28;20563;-86
2023/10/08 04:01:57;;;;;;;4.27;2.77;;;19.20;92.60;;;;;;4956948;28;20468;-85
2023/10/08 04:04:59;;;;;;;6.67;3.60;;;19.10;92.20;;;;;;4960128;28;21087;-86
2023/10/08 04:14:01;;;;;;;;;;;;;;;;;;;;;
2023/10/08 04:16:40;;;;;;;7.50;2.83;;;19.00;92.20;;;;;;4971059;28;20465;-85
2023/10/08 04:19:42;;;;;;;4.47;2.83;;;19.00;92.30;;;;;;4958945;28;20491;-86
2023/10/08 04:25:54;;;;;;;4.63;3.13;;;19.00;92.40;;;;;;4964075;28;20529;-86
2023/10/08 04:29:06;;;;;;;6.10;3.47;;;19.00;92.40;;;;;;4964439;28;20935;-85
2023/10/08 04:31:54;;;;;;;3.90;3.10;;;19.00;92.40;;;;;;4978242;28;20467;-86
2023/10/08 04:35:01;;;;;;;5.70;2.93;;;19.00;92.40;;;;;;4957878;28;20552;-86
2023/10/08 04:41:11;;;;;;;6.17;3.20;;;19.00;92.40;;;;;;4889432;29;20502;-84
2023/10/08 04:44:26;;;;;;;5.20;2.70;;;19.10;92.60;;;;;;4963141;28;20463;-85
2023/10/08 04:47:32;;;;;;;4.60;3.87;;;19.00;92.60;;;;;;4993736;28;20445;-87
2023/10/08 04:50:15;;;;;;;5.23;3.37;;;18.90;92.60;;;;;;4986678;28;20518;-87
2023/10/08 04:52:58;;;;;;;5.90;3.80;;;18.80;92.60;;;;;;4973712;28;20460;-84
2023/10/08 04:55:48;;;;;;;3.47;2.97;;;18.70;92.80;;;;;;4970244;28;20448;-86
2023/10/08 04:58:50;;;;;;;5.07;3.57;;;18.90;92.90;;;;;;4968607;28;20483;-85
2023/10/08 05:02:12;;;;;;;5.37;3.27;;;18.80;92.70;;;;;;4979133;28;20467;-86
2023/10/08 05:17:31;;;;;;;5.80;3.20;;;18.60;93.10;;;;;;4983489;28;20444;-84
2023/10/08 05:24:08;;;;;;;6.67;3.60;;;18.70;93.20;;;;;;4986677;28;20498;-86
2023/10/08 05:27:15;;;;;;;4.20;3.30;;;18.70;93.00;;;;;;4975325;28;20456;-86
2023/10/08 05:30:16;;;;;;;5.03;3.23;;;18.70;93.10;;;;;;4986275;28;20444;-86
2023/10/08 05:40:13;;;;;;;6.83;2.80;;;18.50;93.00;;;;;;4981147;28;20483;-86
2023/10/08 05:43:22;;;;;;;6.40;4.07;;;18.50;93.20;;;;;;4971884;28;20494;-88
2023/10/08 05:53:43;;;;;;;6.93;4.37;;;18.60;93.40;;;;;;4989793;28;20463;-85
2023/10/08 05:56:28;;;;;;;6.10;3.60;;;19.00;93.70;;;;;;4967610;28;20455;-85
2023/10/08 05:59:38;;;;;;;8.47;3.93;;;18.60;93.50;;;;;;4949223;28;20507;-85
2023/10/08 06:06:25;;;;;;;6.70;4.57;;;18.80;93.50;;;;;;4989490;28;20515;-89
2023/10/08 06:13:55;;;;;;;3.87;3.20;;;18.80;93.10;;;;;;4962130;28;20478;-88
2023/10/08 06:20:01;;;;;;;5.90;3.30;;;18.70;93.50;;;;;;5003062;23;20496;-85
2023/10/08 06:22:43;;;;;;;4.60;3.20;;;18.80;93.70;;;;;;4959108;28;20467;-85
2023/10/08 06:25:55;;;;;;;7.10;3.70;;;18.80;93.40;;;;;;4964827;28;20463;-85
2023/10/08 06:28:35;;;;;;;5.33;3.77;;;18.90;93.30;;;;;;4958821;28;20484;-85
2023/10/08 06:31:53;;;;;;;;;;;;;;;;;;;;;
2023/10/08 06:34:56;;;;;;;6.33;3.80;;;18.80;93.40;;;;;;4973602;28;20445;-86
2023/10/08 06:38:23;;;;;;;7.43;4.37;;;18.70;93.40;;;;;;4963093;28;20476;-86
2023/10/08 06:48:45;;;;;;;3.70;3.00;;;18.60;93.70;;;;;;4917364;29;20463;-87
2023/10/08 06:51:32;;;;;;;5.60;5.10;;;18.70;93.70;;;;;;4934042;28;20539;-85
2023/10/08 06:54:50;;;;;;;6.40;4.07;;;18.80;93.80;;;;;;4963421;28;20448;-87
2023/10/08 06:57:48;;;;;;;6.57;3.23;;;18.70;93.60;;;;;;4961743;28;20523;-86
2023/10/08 07:00:40;;;;;;;3.93;3.10;;;18.70;94.00;;;;;;4963157;28;20461;-85
2023/10/08 07:03:37;;;;;;;6.33;3.70;;;18.70;93.90;;;;;;4977778;28;20452;-86
2023/10/08 07:09:39;;;;;;;7.63;4.10;;;18.70;94.00;;;;;;4971329;28;20471;-84
2023/10/08 07:12:35;;;;;;;5.40;3.80;;;18.70;93.90;;;;;;4969071;28;20452;-86
2023/10/08 07:18:52;;;;;;;7.87;3.50;;;18.70;94.00;;;;;;4970719;28;20544;-86
2023/10/08 07:25:08;;;;;;;6.90;3.40;;;18.90;94.00;;;;;;4976110;28;20468;-85
2023/10/08 07:28:19;;;;;;;7.03;3.90;;;18.90;93.90;;;;;;4954287;28;20496;-85
2023/10/08 07:34:25;;;;;;;5.57;3.73;;;18.90;93.90;;;;;;4993790;28;20503;-86
2023/10/08 07:37:29;;;;;;;10.13;3.90;;;19.30;94.10;;;;;;4934681;29;20479;-88
2023/10/08 07:40:12;;;;;;;6.87;3.53;;;19.00;94.00;;;;;;4939716;28;20505;-85
2023/10/08 07:42:40;;;;;;;5.27;3.27;;;19.10;94.00;;;;;;4979350;28;20472;-84
2023/10/08 07:45:08;;;;;;;6.00;3.90;;;19.20;94.00;;;;;;4961194;28;20479;-86
2023/10/08 07:47:35;;;;;;;6.20;3.90;;;19.30;94.00;;;;;;4956647;28;20491;-85
2023/10/08 07:50:11;;;;;;;6.83;3.90;;;19.50;93.60;;;;;;4961967;28;20456;-89
2023/10/08 07:52:44;;;;;;;7.80;4.00;;;19.40;93.40;;;;;;4977008;28;20492;-85
2023/10/08 07:55:41;;;;;;;6.63;3.90;;;19.40;93.50;;;;;;4956705;28;20650;-85
2023/10/08 07:59:08;;;;;;;6.57;4.57;;;19.50;93.50;;;;;;4981804;23;20516;-86
2023/10/08 08:05:45;;;;;;;;;;;;;;;;;;;;;
2023/10/08 08:08:57;;;;;;;6.50;3.80;;;19.50;93.70;;;;;;5018340;28;20478;-87
2023/10/08 08:16:29;;;;;;;;;;;;;;;;;;;;;
2023/10/08 08:19:52;;;;;;;7.20;4.03;;;19.70;93.40;;;;;;4947433;28;20501;-84
2023/10/08 08:23:27;;;;;;;6.50;4.03;;;19.70;93.30;;;;;;4841469;29;20510;-85
2023/10/08 08:26:39;;;;;;;9.70;3.90;;;19.90;93.30;;;;;;4841671;29;20592;-84
2023/10/08 08:29:48;;;;;;;5.80;3.53;;;20.10;93.10;;;;;;4930743;29;20494;-87
2023/10/08 08:33:22;;;;;;;6.07;3.70;;;19.90;93.20;;;;;;4899194;29;20439;-85
2023/10/08 08:36:37;;;;;;;5.77;3.73;;;20.40;92.70;;;;;;4905440;29;20446;-85
2023/10/08 08:40:19;;;;;;;;;;;;;;;;;;;;;
2023/10/08 08:43:13;;;;;;;9.00;4.13;;;19.90;92.90;;;;;;4869693;29;20455;-87
2023/10/08 08:46:22;;;;;;;8.90;4.30;;;19.70;93.60;;;;;;4886138;29;20465;-85
2023/10/08 08:55:53;;;;;;;8.83;4.07;;;20.20;93.60;;;;;;4849515;29;20460;-87
2023/10/08 08:59:17;;;;;;;6.80;3.73;;;20.00;93.50;;;;;;4867421;29;20530;-85
2023/10/08 09:03:16;;;;;;;6.77;4.40;;;19.70;93.70;;;;;;4863917;29;20464;-86
2023/10/08 09:20:06;;;;;;;6.90;4.10;;;20.00;93.90;;;;;;4951770;28;20491;-86
2023/10/08 09:23:24;;;;;;;9.13;4.30;;;20.10;93.90;;;;;;4980484;28;20495;-87
2023/10/08 09:26:44;;;;;;;12.30;5.47;;;20.10;93.90;;;;;;5003264;28;20764;-86
2023/10/08 09:33:30;;;;;;;11.77;5.63;;;20.30;93.60;;;;;;4986909;28;20478;-87
2023/10/08 09:37:21;;;;;;;19.63;8.80;;;20.40;93.70;;;;;;4990145;28;20415;-87
2023/10/08 09:40:34;;;;;;;15.63;7.10;;;20.60;93.90;;;;;;4986701;28;20499;-86
2023/10/08 09:43:53;;;;;;;24.43;12.33;;;20.80;93.60;;;;;;4991426;28;20451;-87
2023/10/08 09:46:52;;;;;;;;;;;;;;;;;;;;;
2023/10/08 09:50:14;;;;;;;9.40;5.33;;;20.70;93.40;;;;;;4926571;28;20471;-88
2023/10/08 09:59:52;;;;;;;10.87;6.03;;;20.70;93.40;;;;;;4995396;28;20490;-86
2023/10/08 10:02:58;;;;;;;7.87;5.33;;;20.50;93.70;;;;;;4976442;28;20446;-87
2023/10/08 10:06:02;;;;;;;10.20;5.17;;;20.60;93.70;;;;;;4975534;28;20458;-85
2023/10/08 10:08:58;;;;;;;8.07;5.30;;;21.00;93.80;;;;;;4981260;28;20474;-85
2023/10/08 10:12:09;;;;;;;9.00;5.43;;;20.80;93.40;;;;;;4924886;29;20477;-86
2023/10/08 10:15:23;;;;;;;;;;;;;;;;;;;;;
2023/10/08 10:18:14;;;;;;;7.87;4.90;;;21.30;92.90;;;;;;4956714;28;20481;-86
2023/10/08 10:21:29;;;;;;;14.07;7.07;;;21.10;93.30;;;;;;4939212;28;20446;-89
2023/10/08 10:24:53;;;;;;;13.57;5.90;;;21.50;92.70;;;;;;4926785;29;20479;-83
2023/10/08 10:31:58;;;;;;;13.13;5.03;;;21.30;93.50;;;;;;4940715;29;20564;-85
2023/10/08 10:35:37;;;;;;;11.93;6.03;;;21.10;93.30;;;;;;4922377;29;20468;-83
2023/10/08 10:38:53;;;;;;;8.13;5.37;;;20.90;94.00;;;;;;4962629;28;20457;-86
2023/10/08 10:49:18;;;;;;;15.40;7.00;;;21.30;94.70;;;;;;4993431;28;20532;-85
2023/10/08 11:04:27;;;;;;;;;;;;;;;;;;;;;
2023/10/08 11:07:45;;;;;;;10.70;6.40;;;21.80;93.10;;;;;;4932391;28;20494;-85
2023/10/08 11:10:58;;;;;;;9.90;5.53;;;22.20;92.90;;;;;;4985021;28;20460;-88
2023/10/08 11:14:12;;;;;;;;;;;;;;;;;;;;;
2023/10/08 11:24:42;;;;;;;13.47;7.10;;;22.00;92.50;;;;;;4916681;29;20542;-84
2023/10/08 11:31:33;;;;;;;11.57;7.50;;;21.50;94.00;;;;;;4851599;29;20466;-89
2023/10/08 11:35:27;;;;;;;12.70;6.13;;;21.40;94.30;;;;;;4844223;29;20495;-86
2023/10/08 11:38:53;;;;;;;;;;;;;;;;;;;;;
2023/10/08 11:41:50;;;;;;;15.00;7.40;;;22.40;93.90;;;;;;4926570;29;20458;-88
2023/10/08 11:45:17;;;;;;;12.77;6.40;;;22.30;93.00;;;;;;4919303;29;20453;-88
2023/10/08 11:48:38;;;;;;;12.97;8.33;;;22.10;93.60;;;;;;4898252;29;20498;-87
2023/10/08 11:52:00;;;;;;;11.77;7.60;;;22.00;93.70;;;;;;4928736;29;20993;-86
2023/10/08 11:55:06;;;;;;;;;;;;;;;;;;;;;
2023/10/08 12:01:52;;;;;;;14.57;7.00;;;22.40;93.50;;;;;;4976796;28;20432;-88
2023/10/08 12:04:51;;;;;;;14.20;7.80;;;23.10;92.60;;;;;;4999320;28;20451;-86
2023/10/08 12:08:03;;;;;;;14.53;7.60;;;23.00;92.30;;;;;;4993527;28;20499;-87
2023/10/08 12:11:36;;;;;;;19.90;7.53;;;22.80;92.30;;;;;;4974175;28;20458;-86
2023/10/08 12:15:19;;;;;;;12.03;6.57;;;22.80;92.80;;;;;;4976563;28;20463;-86
2023/10/08 12:25:32;;;;;;;15.60;9.57;;;22.60;92.50;;;;;;4988722;28;20478;-85
2023/10/08 12:40:11;;;;;;;14.63;7.80;;;22.20;93.60;;;;;;4917304;29;20493;-86
2023/10/08 12:43:39;;;;;;;14.80;9.23;;;22.00;94.00;;;;;;4954547;28;20448;-87
2023/10/08 12:46:48;;;;;;;15.07;8.03;;;21.90;94.20;;;;;;4981007;28;20455;-87
2023/10/08 12:57:08;;;;;;;13.20;8.00;;;22.20;94.00;;;;;;4988947;28;20850;-87
2023/10/08 13:00:37;;;;;;;11.10;8.13;;;22.20;93.60;;;;;;4947338;28;20570;-86
2023/10/08 13:06:56;;;;;;;12.30;8.20;;;21.90;94.60;;;;;;4941901;28;20464;-85
2023/10/08 13:17:10;;;;;;;11.60;8.20;;;21.70;95.30;;;;;;4986505;28;20463;-86
2023/10/08 13:47:05;;;;;;;14.10;8.53;;;22.10;94.60;;;;;;5293806;23;20874;-87
2023/10/08 13:50:29;;;;;;;16.07;9.33;;;22.30;94.30;;;;;;4907186;29;20447;-86
2023/10/08 13:53:51;;;;;;;;;;;;;;;;;;;;;
2023/10/08 13:57:25;;;;;;;14.00;8.53;;;22.20;95.20;;;;;;4871295;29;20487;-86
2023/10/08 14:00:38;;;;;;;12.97;8.50;;;22.00;95.40;;;;;;4857272;29;20502;-84
2023/10/08 14:07:17;;;;;;;16.20;9.20;;;22.20;95.30;;;;;;4830624;29;20440;-87
2023/10/08 14:11:44;;;;;;;16.37;9.40;;;22.10;95.20;;;;;;4767446;29;20482;-85
2023/10/08 14:22:22;;;;;;;15.13;9.30;;;22.40;94.70;;;;;;4914004;29;20616;-85
2023/10/08 14:29:43;;;;;;;17.50;9.60;;;22.10;95.10;;;;;;4983766;28;20475;-85
2023/10/08 14:33:13;;;;;;;14.17;8.83;;;21.90;95.50;;;;;;4921442;29;20502;-86
2023/10/08 14:53:31;;;;;;;;;;;;;;;;;;;;;
2023/10/08 15:04:40;;;;;;;;;;;;;;;;;;;;;
2023/10/08 15:13:11;;;;;;;18.00;9.37;;;21.90;95.70;;;;;;2900608;26;20478;-88
2023/10/08 15:20:49;;;;;;;19.57;8.90;;;21.70;96.40;;;;;;4901389;29;20602;-85
2023/10/08 15:31:45;;;;;;;17.53;9.53;;;21.70;96.40;;;;;;4908918;29;20486;-87
2023/10/08 15:35:22;;;;;;;14.03;8.63;;;21.70;96.40;;;;;;4901371;29;20559;-86
2023/10/08 15:38:53;;;;;;;12.43;7.60;;;21.60;96.60;;;;;;4855658;29;20489;-85
2023/10/08 15:50:36;;;;;;;13.10;8.50;;;21.80;96.60;;;;;;4996475;23;20508;-86
2023/10/08 16:01:25;;;;;;;16.73;9.37;;;21.60;97.20;;;;;;4983098;28;20609;-87
2023/10/08 16:04:47;;;;;;;10.57;7.03;;;21.50;97.50;;;;;;4931588;28;20462;-87
2023/10/08 16:33:43;;;;;;;13.70;8.40;;;21.20;97.60;;;;;;4940567;28;20582;-85
2023/10/08 17:09:37;;;;;;;;;;;;;;;;;;;;;
2023/10/08 17:13:01;;;;;;;13.13;9.07;;;20.90;99.50;;;;;;4966603;28;20448;-87
2023/10/08 17:33:32;;;;;;;17.10;9.67;;;20.70;99.90;;;;;;5007538;28;20446;-86
2023/10/08 17:37:12;;;;;;;15.43;9.73;;;20.80;99.90;;;;;;4908640;29;20493;-86
2023/10/08 17:40:56;;;;;;;15.50;8.60;;;20.70;99.90;;;;;;4818550;29;20501;-86
2023/10/08 17:44:07;;;;;;;14.07;8.90;;;20.50;99.90;;;;;;4832985;29;20433;-86
2023/10/08 17:51:07;;;;;;;12.07;8.43;;;20.70;99.90;;;;;;3248735;26;23007;-87
2023/10/08 18:01:44;;;;;;;15.97;9.63;;;20.30;99.90;;;;;;4929831;29;20515;-85
2023/10/08 18:08:27;;;;;;;12.80;10.87;;;20.40;99.90;;;;;;4873352;29;20504;-87
2023/10/08 18:11:43;;;;;;;14.93;9.20;;;20.20;99.90;;;;;;4796619;29;20564;-86
2023/10/08 18:15:23;;;;;;;16.43;9.50;;;20.10;99.90;;;;;;4859154;29;21269;-84
2023/10/08 18:26:51;;;;;;;14.30;8.87;;;19.90;99.90;;;;;;4757596;30;20518;-84
2023/10/08 18:30:13;;;;;;;15.60;9.87;;;19.80;99.90;;;;;;4756838;29;20715;-87
2023/10/08 18:33:16;;;;;;;15.20;9.10;;;19.80;99.90;;;;;;4768829;29;21072;-86
2023/10/08 18:36:46;;;;;;;14.30;9.47;;;19.70;99.90;;;;;;4764991;29;20496;-84
2023/10/08 18:40:12;;;;;;;15.87;9.33;;;19.80;99.90;;;;;;4752627;30;20473;-84
2023/10/08 18:43:31;;;;;;;14.03;8.60;;;19.70;99.90;;;;;;4780194;29;20998;-83
2023/10/08 18:50:21;;;;;;;15.13;10.77;;;19.80;99.90;;;;;;4852026;29;20493;-85
2023/10/08 19:00:30;;;;;;;;;;;;;;;;;;;;;
2023/10/08 19:03:55;;;;;;;17.20;12.50;;;19.60;99.90;;;;;;4917783;28;20464;-86
2023/10/08 19:11:26;;;;;;;;;;;;;;;;;;;;;
2023/10/08 19:29:09;;;;;;;20.80;13.30;;;19.40;99.90;;;;;;4896594;29;21789;-85
2023/10/08 19:32:22;;;;;;;21.27;13.43;;;19.30;99.90;;;;;;4903770;29;20473;-84
2023/10/08 19:35:27;;;;;;;19.90;12.50;;;19.40;99.90;;;;;;4894344;29;20481;-83
2023/10/08 19:39:08;;;;;;;;;;;;;;;;;;;;;
2023/10/08 19:42:39;;;;;;;16.13;11.83;;;19.40;99.90;;;;;;4903806;28;20494;-86
2023/10/08 19:49:44;;;;;;;18.70;12.13;;;19.50;99.90;;;;;;4894837;29;21110;-86
2023/10/08 19:52:45;;;;;;;18.37;12.70;;;19.70;99.90;;;;;;4835785;29;20495;-87
2023/10/08 19:56:35;;;;;;;21.03;12.90;;;19.80;99.90;;;;;;4824907;29;20463;-85
2023/10/08 20:04:36;;;;;;;21.87;12.80;;;19.70;99.90;;;;;;4832140;29;20524;-87
2023/10/08 20:11:13;;;;;;;25.60;14.30;;;19.30;99.90;;;;;;4764811;29;20471;-86
2023/10/08 20:27:52;;;;;;;25.43;17.20;;;18.80;99.90;;;;;;4968284;28;20522;-87
2023/10/08 20:31:35;;;;;;;22.20;15.73;;;18.80;99.90;;;;;;4950788;28;20423;-87
2023/10/08 20:34:36;;;;;;;25.20;16.13;;;18.60;99.90;;;;;;4945231;28;20526;-85
2023/10/08 20:37:57;;;;;;;17.80;13.43;;;18.70;99.90;;;;;;4964840;28;20456;-86
2023/10/08 20:40:52;;;;;;;19.20;13.23;;;18.80;99.90;;;;;;4877661;29;20503;-88
2023/10/08 20:43:39;;;;;;;;;;;;;;;;;;;;;
2023/10/08 20:47:03;;;;;;;;;;;;;;;;;;;;;
2023/10/08 20:50:27;;;;;;;20.80;12.90;;;18.40;99.90;;;;;;4887787;29;21249;-87
2023/10/08 20:53:55;;;;;;;;;;;;;;;;;;;;;
2023/10/08 20:57:07;;;;;;;17.30;12.90;;;18.50;99.90;;;;;;4838056;29;20466;-84
2023/10/08 21:00:41;;;;;;;20.17;12.80;;;18.50;99.90;;;;;;4788705;29;20440;-87
2023/10/08 21:03:51;;;;;;;21.20;12.83;;;18.50;99.90;;;;;;4830189;29;20468;-86
2023/10/08 21:07:17;;;;;;;14.80;11.73;;;18.30;99.90;;;;;;4836822;29;21339;-87
2023/10/08 21:29:51;;;;;;;17.73;12.27;;;18.20;99.90;;;;;;4964728;28;20526;-86
2023/10/08 21:37:04;;;;;;;18.53;11.00;;;18.40;99.90;;;;;;4877375;29;20440;-88
2023/10/08 21:40:36;;;;;;;15.80;11.53;;;18.10;99.90;;;;;;4847978;29;20680;-85
2023/10/08 21:43:17;;;;;;;21.10;13.50;;;18.20;99.90;;;;;;4818655;29;20447;-85
2023/10/08 21:50:53;;;;;;;20.60;12.90;;;18.20;99.90;;;;;;4825920;29;20438;-83
2023/10/08 22:08:09;;;;;;;;;;;;;;;;;;;;;
2023/10/08 22:11:28;;;;;;;16.20;11.77;;;18.00;99.90;;;;;;4881109;29;21103;-86
2023/10/08 22:30:04;;;;;;;;;;;;;;;;;;;;;
2023/10/08 23:00:12;;;;;;;19.13;11.20;;;18.30;99.90;;;;;;4728882;30;20495;-87
2023/10/08 23:11:14;;;;;;;;;;;;;;;;;;;;;
2023/10/08 23:22:47;;;;;;;17.70;10.40;;;17.70;99.90;;;;;;4812680;29;21238;-84
2023/10/08 23:25:56;;;;;;;17.40;11.57;;;17.90;99.90;;;;;;4755628;30;20543;-86
2023/10/08 23:29:28;;;;;;;;;;;;;;;;;;;;;
2023/10/08 23:33:28;;;;;;;;;;;;;;;;;;;;;
2023/10/08 23:47:31;;;;;;;13.83;11.40;;;17.70;99.90;;;;;;4721566;30;20463;-86
2023/10/08 23:51:11;;;;;;;18.40;14.47;;;17.70;99.90;;;;;;4992827;23;20503;-86
